Aviation Digital Data Service (ADDS)

Output produced by METARs form (0400 UTC 31 October 2014)
found at http://aviationweather.gov/adds/metars/
 
KCAR 302320Z 3100/3124 33004KT P6SM OVC050 
     FM311300 VRB03KT P6SM BKN100